Time;durP1;ratioP1;P1;durP2;ratioP2;P2;SDS_P1;SDS_P2;PMS_P1;PMS_P2;Temp;Humidity;BMP_temperature;BMP_pressure;BME280_temperature;BME280_humidity;BME280_pressure;Samples;Min_cycle;Max_cycle;Signal;HPM_P1;HPM_P2
2022/04/04 00:00:09;;;;;;;8.70;6.33;;;3.20;99.90;;;;;;5113887;28;20445;-76
2022/04/04 00:02:36;;;;;;;6.93;6.03;;;3.10;99.90;;;;;;5114072;28;20492;-77
2022/04/04 00:05:04;;;;;;;7.20;6.10;;;3.10;99.90;;;;;;5114401;28;20461;-75
2022/04/04 00:07:30;;;;;;;8.23;6.60;;;2.90;99.90;;;;;;5114064;28;20449;-87
2022/04/04 00:09:58;;;;;;;10.07;6.67;;;3.00;99.90;;;;;;5113854;28;20444;-75
2022/04/04 00:12:25;;;;;;;6.53;5.93;;;3.00;99.90;;;;;;5113880;28;20445;-77
2022/04/04 00:14:52;;;;;;;7.03;5.60;;;2.90;99.90;;;;;;5113564;28;20445;-77
2022/04/04 00:17:19;;;;;;;7.00;5.90;;;2.80;99.90;;;;;;5114539;28;20433;-77
2022/04/04 00:19:46;;;;;;;7.87;5.37;;;2.80;99.90;;;;;;5114066;28;20445;-78
2022/04/04 00:22:13;;;;;;;7.17;5.77;;;2.60;99.90;;;;;;5111861;28;20515;-76
2022/04/04 00:24:40;;;;;;;6.83;6.13;;;2.60;99.90;;;;;;5099276;28;20440;-78
2022/04/04 00:27:09;;;;;;;6.33;5.70;;;2.60;99.90;;;;;;5114301;28;20464;-84
2022/04/04 00:29:35;;;;;;;7.83;5.33;;;2.50;99.90;;;;;;5113545;28;20476;-88
2022/04/04 00:32:03;;;;;;;6.20;5.67;;;2.40;99.90;;;;;;5114405;28;20441;-84
2022/04/04 00:34:29;;;;;;;6.47;5.80;;;2.50;99.90;;;;;;5113884;28;20966;-89
2022/04/04 00:37:02;;;;;;;6.07;5.47;;;2.50;99.90;;;;;;5114245;28;20448;-88
2022/04/04 00:39:29;;;;;;;10.27;5.10;;;2.40;99.90;;;;;;5114563;28;20466;-75
2022/04/04 00:41:56;;;;;;;7.83;5.47;;;2.40;99.90;;;;;;5113875;28;20485;-80
2022/04/04 00:44:25;;;;;;;7.63;4.93;;;2.40;99.90;;;;;;5113100;28;20456;-82
2022/04/04 00:46:52;;;;;;;5.83;4.80;;;2.40;99.90;;;;;;5113984;28;20449;-75
2022/04/04 00:49:19;;;;;;;6.30;5.27;;;2.40;99.90;;;;;;5113715;28;20931;-85
2022/04/04 00:51:46;;;;;;;6.67;5.57;;;2.40;99.90;;;;;;5115682;28;20440;-87
2022/04/04 00:54:14;;;;;;;8.90;6.33;;;2.40;99.90;;;;;;5117713;28;20432;-79
2022/04/04 00:56:47;;;;;;;6.33;5.47;;;2.40;99.90;;;;;;5118724;28;20750;-88
2022/04/04 00:59:23;;;;;;;6.67;5.47;;;2.30;99.90;;;;;;5118582;28;20429;-83
2022/04/04 01:01:50;;;;;;;7.60;5.90;;;2.40;99.90;;;;;;5118904;28;20472;-88
2022/04/04 01:04:23;;;;;;;8.00;5.60;;;2.30;99.90;;;;;;5118214;28;20449;-88
2022/04/04 01:06:50;;;;;;;6.57;5.53;;;2.30;99.90;;;;;;5118740;28;20455;-87
2022/04/04 01:09:20;;;;;;;6.63;5.47;;;2.40;99.90;;;;;;5118663;28;20425;-89
2022/04/04 01:12:04;;;;;;;9.43;7.60;;;2.30;99.90;;;;;;5116375;28;20937;-75
2022/04/04 01:14:32;;;;;;;8.83;5.60;;;2.30;99.90;;;;;;5117601;28;20235;-78
2022/04/04 01:16:59;;;;;;;8.53;5.47;;;2.30;99.90;;;;;;5117137;28;20452;-84
2022/04/04 01:19:25;;;;;;;8.57;5.60;;;2.30;99.90;;;;;;5117447;28;20429;-77
2022/04/04 01:21:53;;;;;;;8.10;5.47;;;2.40;99.90;;;;;;5117513;28;20492;-81
2022/04/04 01:24:23;;;;;;;7.43;6.00;;;2.30;99.90;;;;;;5117417;28;20767;-81
2022/04/04 01:26:51;;;;;;;5.57;4.97;;;2.40;99.90;;;;;;5117352;28;20441;-81
2022/04/04 01:29:19;;;;;;;5.60;5.10;;;2.30;99.90;;;;;;5117233;28;20469;-78
2022/04/04 01:31:49;;;;;;;11.50;5.90;;;2.30;99.90;;;;;;5117365;28;20429;-77
2022/04/04 01:34:18;;;;;;;5.70;5.13;;;2.40;99.90;;;;;;5117499;28;20455;-87
2022/04/04 01:36:47;;;;;;;6.33;5.40;;;2.30;99.90;;;;;;5117183;28;20448;-86
2022/04/04 01:39:13;;;;;;;8.50;5.63;;;2.30;99.90;;;;;;5117321;28;20431;-85
2022/04/04 01:41:45;;;;;;;7.30;5.63;;;2.30;99.90;;;;;;5117590;28;20476;-91
2022/04/04 01:44:25;;;;;;;6.13;5.57;;;2.40;99.90;;;;;;5117937;28;20439;-87
2022/04/04 01:46:52;;;;;;;6.77;5.33;;;2.40;99.90;;;;;;5117880;28;20463;-87
2022/04/04 01:49:21;;;;;;;6.80;5.80;;;2.40;99.90;;;;;;5117711;28;20428;-87
2022/04/04 01:51:48;;;;;;;9.10;6.10;;;2.40;99.90;;;;;;5117820;28;20456;-89
2022/04/04 01:54:16;;;;;;;7.70;5.67;;;2.40;99.90;;;;;;5117942;28;20437;-89
2022/04/04 01:56:45;;;;;;;6.87;6.17;;;2.40;99.90;;;;;;5117520;28;20440;-89
2022/04/04 01:59:15;;;;;;;6.93;5.97;;;2.40;99.90;;;;;;5117917;28;20436;-89
2022/04/04 02:01:51;;;;;;;7.80;7.00;;;2.50;99.90;;;;;;5115955;28;20437;-89
2022/04/04 02:04:19;;;;;;;7.47;6.63;;;2.60;99.90;;;;;;5117683;28;20236;-89
2022/04/04 02:06:49;;;;;;;7.93;5.90;;;2.50;99.90;;;;;;5117670;28;20924;-88
2022/04/04 02:09:19;;;;;;;10.07;5.97;;;2.50;99.90;;;;;;5117973;28;20429;-89
2022/04/04 02:11:48;;;;;;;9.90;6.43;;;2.50;99.90;;;;;;5116762;28;20441;-76
2022/04/04 02:14:15;;;;;;;9.30;6.43;;;2.30;99.90;;;;;;5116470;28;20985;-76
2022/04/04 02:16:45;;;;;;;8.27;6.23;;;2.30;99.90;;;;;;5116271;28;20437;-86
2022/04/04 02:19:12;;;;;;;9.40;6.30;;;2.20;99.90;;;;;;5116520;28;20545;-86
2022/04/04 02:21:39;;;;;;;10.40;7.17;;;2.20;99.90;;;;;;5116059;28;20800;-79
2022/04/04 02:24:06;;;;;;;7.73;6.17;;;2.20;99.90;;;;;;5116226;28;20444;-84
2022/04/04 02:26:34;;;;;;;8.30;6.53;;;2.10;99.90;;;;;;5116730;28;20429;-87
2022/04/04 02:29:10;;;;;;;8.47;6.83;;;2.10;99.90;;;;;;5117194;28;20461;-88
2022/04/04 02:31:38;;;;;;;7.73;6.93;;;2.10;99.90;;;;;;5116957;28;20443;-91
2022/04/04 02:34:11;;;;;;;10.30;6.67;;;2.00;99.90;;;;;;5117071;28;20509;-90
2022/04/04 02:36:38;;;;;;;7.23;6.40;;;2.00;99.90;;;;;;5117106;28;20440;-89
2022/04/04 02:39:07;;;;;;;10.33;6.70;;;2.00;99.90;;;;;;5116861;28;20448;-89
2022/04/04 02:41:34;;;;;;;9.47;7.20;;;1.90;99.90;;;;;;5116125;28;20437;-85
2022/04/04 02:44:01;;;;;;;9.97;7.00;;;1.90;99.90;;;;;;5115963;28;20448;-79
2022/04/04 02:46:29;;;;;;;10.50;7.63;;;2.00;99.90;;;;;;5115341;28;20468;-75
2022/04/04 02:48:56;;;;;;;12.07;7.23;;;2.00;99.90;;;;;;5115759;28;20884;-78
2022/04/04 02:51:23;;;;;;;9.60;7.10;;;2.00;99.90;;;;;;5115719;28;20425;-77
2022/04/04 02:53:50;;;;;;;10.13;7.17;;;2.10;99.90;;;;;;5115457;28;20448;-78
2022/04/04 02:56:31;;;;;;;9.60;7.47;;;2.20;99.90;;;;;;5115332;28;20452;-77
2022/04/04 02:58:59;;;;;;;10.67;7.30;;;2.20;99.90;;;;;;5115463;28;20441;-76
2022/04/04 03:01:26;;;;;;;12.43;7.33;;;2.20;99.90;;;;;;5115164;28;20940;-83
2022/04/04 03:03:54;;;;;;;9.73;7.40;;;2.20;99.90;;;;;;5115081;28;20449;-75
2022/04/04 03:06:21;;;;;;;8.30;7.10;;;2.20;99.90;;;;;;5115011;28;20900;-75
2022/04/04 03:08:48;;;;;;;11.03;7.00;;;2.10;99.90;;;;;;5114911;28;20960;-87
2022/04/04 03:11:16;;;;;;;11.53;7.07;;;2.20;99.90;;;;;;5115758;28;20425;-85
2022/04/04 03:13:50;;;;;;;7.83;6.80;;;2.20;99.90;;;;;;5115389;28;20437;-87
2022/04/04 03:16:22;;;;;;;10.77;9.40;;;2.20;99.90;;;;;;5115417;28;20525;-88
2022/04/04 03:18:58;;;;;;;10.03;7.00;;;2.20;99.90;;;;;;5115844;28;20185;-87
2022/04/04 03:21:28;;;;;;;11.37;8.07;;;2.30;99.90;;;;;;5116041;28;20486;-89
2022/04/04 03:23:59;;;;;;;8.70;7.80;;;2.20;99.90;;;;;;5115676;28;20480;-87
2022/04/04 03:26:32;;;;;;;11.50;7.80;;;2.20;99.90;;;;;;5116044;28;20790;-88
2022/04/04 03:29:01;;;;;;;16.40;8.67;;;2.20;99.90;;;;;;5115703;28;20465;-88
2022/04/04 03:31:30;;;;;;;9.90;8.17;;;2.20;99.90;;;;;;5116175;28;20437;-89
2022/04/04 03:33:59;;;;;;;12.17;8.20;;;2.20;99.90;;;;;;5115863;28;20444;-89
2022/04/04 03:36:34;;;;;;;9.37;8.10;;;2.20;99.90;;;;;;5115705;28;20437;-90
2022/04/04 03:39:02;;;;;;;11.70;8.27;;;2.20;99.90;;;;;;5115289;28;20443;-87
2022/04/04 03:41:29;;;;;;;13.43;9.13;;;2.10;99.90;;;;;;5115274;28;20444;-81
2022/04/04 03:43:56;;;;;;;11.97;8.77;;;2.10;99.90;;;;;;5114593;28;20484;-79
2022/04/04 03:46:24;;;;;;;12.03;9.33;;;2.00;99.90;;;;;;5114648;28;20471;-88
2022/04/04 03:48:51;;;;;;;9.07;8.10;;;2.10;99.90;;;;;;5114649;28;20433;-77
2022/04/04 03:51:19;;;;;;;10.50;9.37;;;2.10;99.90;;;;;;5114137;28;20455;-88
2022/04/04 03:53:46;;;;;;;10.30;8.90;;;2.10;99.90;;;;;;5114805;28;20459;-89
2022/04/04 03:56:13;;;;;;;12.83;9.17;;;2.00;99.90;;;;;;5114810;28;20456;-89
2022/04/04 03:58:40;;;;;;;10.47;9.03;;;2.10;99.90;;;;;;5115619;28;20993;-87
2022/04/04 04:01:10;;;;;;;12.43;8.83;;;2.00;99.90;;;;;;5115504;28;20440;-87
2022/04/04 04:03:38;;;;;;;10.97;9.40;;;2.00;99.90;;;;;;5115444;28;20472;-89
2022/04/04 04:06:12;;;;;;;19.20;10.20;;;2.10;99.90;;;;;;5115114;28;20444;-90
2022/04/04 04:08:47;;;;;;;11.57;9.43;;;2.00;99.90;;;;;;5115515;28;20524;-89
2022/04/04 04:11:20;;;;;;;14.77;9.50;;;2.00;99.90;;;;;;5115884;28;20432;-86
2022/04/04 04:13:47;;;;;;;14.47;10.30;;;2.10;99.90;;;;;;5114584;28;20440;-89
2022/04/04 04:16:27;;;;;;;12.33;9.60;;;2.10;99.90;;;;;;5115368;28;20437;-89
2022/04/04 04:19:00;;;;;;;11.00;9.43;;;2.20;99.90;;;;;;5115244;28;20428;-89
2022/04/04 04:21:35;;;;;;;15.13;9.60;;;2.20;99.90;;;;;;5114907;28;20432;-89
2022/04/04 04:24:04;;;;;;;13.33;9.57;;;2.20;99.90;;;;;;5115089;28;20482;-91
2022/04/04 04:26:38;;;;;;;12.27;9.70;;;2.10;99.90;;;;;;5114743;28;20436;-87
2022/04/04 04:29:11;;;;;;;11.63;9.20;;;2.20;99.90;;;;;;5114959;28;20456;-85
2022/04/04 04:31:43;;;;;;;13.87;9.60;;;2.30;99.90;;;;;;5114950;28;20430;-87
2022/04/04 04:34:16;;;;;;;15.57;10.03;;;2.30;99.90;;;;;;5114405;28;20966;-89
2022/04/04 04:36:54;;;;;;;13.13;10.30;;;2.30;99.90;;;;;;5114419;28;20433;-88
2022/04/04 04:39:23;;;;;;;12.27;9.23;;;2.30;99.90;;;;;;5115196;28;20432;-89
2022/04/04 04:41:53;;;;;;;11.97;9.80;;;2.20;99.90;;;;;;5114911;28;20437;-90
2022/04/04 04:44:20;;;;;;;13.87;9.10;;;2.20;99.90;;;;;;5114493;28;20499;-85
2022/04/04 04:46:53;;;;;;;14.53;9.20;;;2.30;99.90;;;;;;5114391;28;20445;-90
2022/04/04 04:49:22;;;;;;;12.20;9.80;;;2.30;99.90;;;;;;5114376;28;20525;-89
2022/04/04 04:52:00;;;;;;;11.90;9.50;;;2.30;99.90;;;;;;5114722;28;20448;-88
2022/04/04 04:54:30;;;;;;;16.33;9.73;;;2.30;99.90;;;;;;5114651;28;20436;-88
2022/04/04 04:56:57;;;;;;;14.53;9.20;;;2.40;99.90;;;;;;5113981;28;20444;-76
2022/04/04 04:59:24;;;;;;;14.70;9.83;;;2.40;99.90;;;;;;5113168;28;20500;-89
2022/04/04 05:01:51;;;;;;;16.30;9.87;;;2.50;99.90;;;;;;5101361;28;20540;-77
2022/04/04 05:04:18;;;;;;;13.10;9.13;;;2.50;99.90;;;;;;5092360;28;20551;-80
2022/04/04 05:06:49;;;;;;;12.33;9.60;;;2.40;99.90;;;;;;5091757;28;20436;-79
2022/04/04 05:09:16;;;;;;;11.90;9.57;;;2.40;99.90;;;;;;5092629;28;20481;-78
2022/04/04 05:11:45;;;;;;;15.20;9.33;;;2.50;99.90;;;;;;5093063;28;20450;-78
2022/04/04 05:14:15;;;;;;;12.23;8.67;;;2.50;99.90;;;;;;5092900;28;20457;-88
2022/04/04 05:16:43;;;;;;;9.93;8.93;;;2.60;99.90;;;;;;5092938;28;20500;-76
2022/04/04 05:19:11;;;;;;;12.17;9.23;;;2.70;99.90;;;;;;5092574;28;20929;-76
2022/04/04 05:21:40;;;;;;;17.08;11.57;;;2.80;99.90;;;;;;5092446;28;20485;-90
2022/04/04 05:24:07;;;;;;;14.53;10.20;;;2.80;99.90;;;;;;5093932;28;20703;-86
2022/04/04 05:26:34;;;;;;;12.93;9.33;;;2.80;99.90;;;;;;5093539;28;20438;-82
2022/04/04 05:29:02;;;;;;;16.17;10.23;;;2.80;99.90;;;;;;5093181;28;20472;-89
2022/04/04 05:31:30;;;;;;;13.57;9.40;;;2.80;99.90;;;;;;5093112;28;20441;-77
2022/04/04 05:33:58;;;;;;;13.20;9.77;;;2.90;99.90;;;;;;5092601;28;20438;-76
2022/04/04 05:36:25;;;;;;;12.70;8.60;;;3.00;99.90;;;;;;5092863;28;20450;-80
2022/04/04 05:38:52;;;;;;;9.83;8.73;;;2.90;99.90;;;;;;5096393;28;20436;-80
2022/04/04 05:41:19;;;;;;;13.87;8.57;;;3.00;99.90;;;;;;5096738;28;20432;-76
2022/04/04 05:43:47;;;;;;;14.93;8.27;;;3.10;99.90;;;;;;5097149;28;20514;-91
2022/04/04 05:46:18;;;;;;;14.50;10.53;;;3.10;99.90;;;;;;5096499;28;20430;-87
2022/04/04 05:48:46;;;;;;;13.33;8.67;;;3.30;99.90;;;;;;5097185;28;20491;-89
2022/04/04 05:51:16;;;;;;;15.07;9.03;;;3.30;99.90;;;;;;5097193;28;20813;-89
2022/04/04 05:53:43;;;;;;;14.63;7.77;;;3.30;99.90;;;;;;5097273;28;20516;-88
2022/04/04 05:56:11;;;;;;;14.13;9.00;;;3.40;99.90;;;;;;5096962;28;20960;-87
2022/04/04 05:58:38;;;;;;;12.97;7.90;;;3.50;99.90;;;;;;5096401;28;20808;-76
2022/04/04 06:01:05;;;;;;;15.20;7.43;;;3.50;99.90;;;;;;5096128;28;20449;-79
2022/04/04 06:03:33;;;;;;;11.50;6.93;;;3.70;99.90;;;;;;5096311;28;20485;-78
2022/04/04 06:06:01;;;;;;;12.40;8.07;;;3.70;99.90;;;;;;5095671;28;20446;-76
2022/04/04 06:08:28;;;;;;;12.97;8.13;;;3.70;99.90;;;;;;5096470;28;20438;-78
2022/04/04 06:10:55;;;;;;;14.50;8.20;;;3.70;99.90;;;;;;5096055;28;20452;-80
2022/04/04 06:13:22;;;;;;;12.13;8.33;;;3.80;99.90;;;;;;5096582;28;20438;-85
2022/04/04 06:15:50;;;;;;;11.50;8.57;;;3.80;99.90;;;;;;5096705;28;20437;-88
2022/04/04 06:18:17;;;;;;;16.23;8.47;;;3.80;99.90;;;;;;5096608;28;20508;-89
2022/04/04 06:20:48;;;;;;;12.33;8.37;;;3.90;99.90;;;;;;5101566;28;20429;-88
2022/04/04 06:23:21;;;;;;;12.83;8.50;;;3.90;99.90;;;;;;5107716;28;20462;-88
2022/04/04 06:25:49;;;;;;;15.47;8.67;;;4.00;99.90;;;;;;5096313;28;20461;-87
2022/04/04 06:28:16;;;;;;;14.80;8.93;;;4.10;99.90;;;;;;5111582;28;20498;-89
2022/04/04 06:30:44;;;;;;;10.87;8.90;;;4.00;99.90;;;;;;5099987;28;20471;-84
2022/04/04 06:33:11;;;;;;;13.60;8.33;;;4.10;99.90;;;;;;5107366;28;20438;-87
2022/04/04 06:35:39;;;;;;;15.57;8.87;;;4.20;99.90;;;;;;5097598;28;20439;-89
2022/04/04 06:38:08;;;;;;;14.67;8.23;;;4.40;99.90;;;;;;5095300;28;20454;-78
2022/04/04 06:40:35;;;;;;;13.60;8.37;;;4.40;99.90;;;;;;5095747;28;20525;-84
2022/04/04 06:43:03;;;;;;;10.50;8.30;;;4.50;99.90;;;;;;5095983;28;20866;-82
2022/04/04 06:45:30;;;;;;;13.50;8.97;;;4.60;99.90;;;;;;5095437;28;20468;-80
2022/04/04 06:47:58;;;;;;;12.80;9.60;;;4.70;99.90;;;;;;5095399;28;20921;-84
2022/04/04 06:50:25;;;;;;;12.40;8.77;;;4.70;99.90;;;;;;5095501;28;20445;-83
2022/04/04 06:52:53;;;;;;;12.27;8.37;;;4.70;99.90;;;;;;5095361;28;20442;-80
2022/04/04 06:55:21;;;;;;;12.67;9.40;;;4.90;99.90;;;;;;5095395;28;20494;-88
2022/04/04 06:57:49;;;;;;;9.67;8.67;;;5.00;99.90;;;;;;5095559;28;20446;-88
2022/04/04 07:00:17;;;;;;;17.03;9.73;;;5.00;99.90;;;;;;5095036;28;20426;-87
2022/04/04 07:02:45;;;;;;;12.50;8.13;;;5.20;99.90;;;;;;5095281;28;20429;-82
2022/04/04 07:05:12;;;;;;;12.67;8.83;;;5.20;99.90;;;;;;5095428;28;20496;-87
2022/04/04 07:07:38;;;;;;;11.57;8.80;;;5.30;99.90;;;;;;5095105;28;20460;-88
2022/04/04 07:10:06;;;;;;;12.90;8.03;;;5.30;99.90;;;;;;5095111;28;20456;-86
2022/04/04 07:12:42;;;;;;;15.87;8.70;;;5.50;99.90;;;;;;5095219;28;20434;-86
2022/04/04 07:15:12;;;;;;;12.73;8.20;;;5.60;99.90;;;;;;5095576;28;20830;-86
2022/04/04 07:17:42;;;;;;;14.83;9.23;;;5.50;99.90;;;;;;5095407;28;20433;-87
2022/04/04 07:20:14;;;;;;;11.67;9.20;;;5.60;99.90;;;;;;5095401;28;20498;-86
2022/04/04 07:22:44;;;;;;;12.80;8.30;;;5.70;99.90;;;;;;5095242;28;20453;-86
2022/04/04 07:25:14;;;;;;;12.60;9.38;;;5.70;99.90;;;;;;5095072;28;20454;-88
2022/04/04 07:27:46;;;;;;;13.77;9.10;;;5.80;99.90;;;;;;5095035;28;20246;-85
2022/04/04 07:30:14;;;;;;;11.60;8.47;;;5.90;99.90;;;;;;5094554;28;20462;-84
2022/04/04 07:32:41;;;;;;;9.37;8.40;;;6.10;99.90;;;;;;5094411;28;20190;-81
2022/04/04 07:35:11;;;;;;;10.00;8.27;;;6.20;99.90;;;;;;5094538;28;20446;-87
2022/04/04 07:37:38;;;;;;;13.77;8.43;;;6.30;99.90;;;;;;5094824;28;20207;-87
2022/04/04 07:40:06;;;;;;;13.53;8.10;;;6.20;99.90;;;;;;5094540;28;20442;-77
2022/04/04 07:42:34;;;;;;;11.00;8.00;;;6.20;99.90;;;;;;5100259;28;20496;-87
2022/04/04 07:45:04;;;;;;;12.40;8.50;;;6.20;99.90;;;;;;5106647;28;20311;-87
2022/04/04 07:47:31;;;;;;;10.87;7.83;;;6.40;99.90;;;;;;5105708;28;20446;-85
2022/04/04 07:50:00;;;;;;;10.67;8.50;;;6.40;99.90;;;;;;5100491;28;20430;-84
2022/04/04 07:52:27;;;;;;;15.23;8.67;;;6.50;99.90;;;;;;5094682;28;20200;-86
2022/04/04 07:55:00;;;;;;;13.10;7.73;;;6.50;99.90;;;;;;5094570;28;20189;-86
2022/04/04 07:57:27;;;;;;;8.97;7.70;;;6.40;99.90;;;;;;5094598;28;20201;-86
2022/04/04 07:59:56;;;;;;;11.70;7.80;;;6.50;99.90;;;;;;5093501;28;20656;-85
2022/04/04 08:02:28;;;;;;;11.33;8.20;;;6.60;99.90;;;;;;5094696;28;20267;-88
2022/04/04 08:04:55;;;;;;;9.90;7.30;;;6.60;99.90;;;;;;5103028;28;20209;-85
2022/04/04 08:07:22;;;;;;;9.53;7.23;;;6.60;99.90;;;;;;5113964;28;20196;-87
2022/04/04 08:09:49;;;;;;;8.10;7.10;;;6.70;99.90;;;;;;5103717;28;20198;-87
2022/04/04 08:12:17;;;;;;;11.00;7.30;;;6.80;99.90;;;;;;5101982;28;20664;-83
2022/04/04 08:14:47;;;;;;;10.87;7.17;;;6.90;99.90;;;;;;5101060;28;20532;-76
2022/04/04 08:17:14;;;;;;;13.13;7.88;;;7.00;99.90;;;;;;5101711;28;20514;-87
2022/04/04 08:19:42;;;;;;;7.77;6.23;;;7.00;99.90;;;;;;5104570;28;20189;-73
2022/04/04 08:22:09;;;;;;;8.77;6.07;;;7.10;99.90;;;;;;5102512;28;20284;-75
2022/04/04 08:24:36;;;;;;;10.03;6.00;;;7.10;99.90;;;;;;5102846;28;20212;-75
2022/04/04 08:27:04;;;;;;;8.93;6.50;;;7.20;99.90;;;;;;5107738;28;20197;-86
2022/04/04 08:29:31;;;;;;;9.67;7.13;;;7.10;99.90;;;;;;5102902;28;20664;-74
2022/04/04 08:31:58;;;;;;;7.40;6.70;;;7.20;99.90;;;;;;5100500;28;20567;-75
2022/04/04 08:34:27;;;;;;;12.48;7.60;;;7.20;99.90;;;;;;5105808;28;20426;-82
2022/04/04 08:36:55;;;;;;;11.03;6.63;;;7.20;99.90;;;;;;5104893;28;20242;-79
2022/04/04 08:39:22;;;;;;;9.97;6.67;;;7.20;99.90;;;;;;5105495;28;20660;-76
2022/04/04 08:41:50;;;;;;;11.07;7.03;;;7.20;99.90;;;;;;5098393;28;20227;-83
2022/04/04 08:44:17;;;;;;;11.23;6.23;;;7.30;99.90;;;;;;5104554;28;20208;-86
2022/04/04 08:46:47;;;;;;;10.93;6.20;;;7.40;99.90;;;;;;5106621;28;20200;-85
2022/04/04 08:49:14;;;;;;;13.97;7.17;;;7.30;99.90;;;;;;5104033;28;20197;-74
2022/04/04 08:51:42;;;;;;;8.83;5.87;;;7.40;99.90;;;;;;5100568;28;20191;-85
2022/04/04 08:54:12;;;;;;;14.27;7.73;;;7.50;99.90;;;;;;5103626;28;20197;-88
2022/04/04 08:56:44;;;;;;;18.83;7.20;;;7.50;99.90;;;;;;5092883;28;20568;-87
2022/04/04 08:59:11;;;;;;;10.50;7.20;;;7.50;99.90;;;;;;5093548;28;20194;-78
2022/04/04 09:01:38;;;;;;;8.07;6.63;;;7.40;99.90;;;;;;5092476;28;20220;-80
2022/04/04 09:04:19;;;;;;;8.37;7.03;;;7.30;99.90;;;;;;5092443;28;20611;-80
2022/04/04 09:06:51;;;;;;;9.10;6.20;;;7.30;99.90;;;;;;5092633;28;20192;-74
2022/04/04 09:09:26;;;;;;;12.00;7.80;;;7.20;99.90;;;;;;5103579;28;20429;-74
2022/04/04 09:12:05;;;;;;;14.10;7.80;;;7.10;99.90;;;;;;5104503;28;20189;-74
2022/04/04 09:14:36;;;;;;;11.80;6.77;;;7.10;99.90;;;;;;5106915;28;20714;-84
2022/04/04 09:17:03;;;;;;;12.33;7.50;;;7.10;99.90;;;;;;5106679;28;20199;-79
2022/04/04 09:19:30;;;;;;;16.73;7.07;;;7.10;99.90;;;;;;5104012;28;20189;-74
2022/04/04 09:21:57;;;;;;;12.27;6.90;;;7.00;99.90;;;;;;5096409;28;20201;-74
2022/04/04 09:24:45;;;;;;;10.93;6.27;;;7.00;99.90;;;;;;5096629;28;20240;-77
2022/04/04 09:27:13;;;;;;;9.20;6.57;;;6.90;99.90;;;;;;5106882;28;20193;-78
2022/04/04 09:29:50;;;;;;;7.77;6.17;;;6.90;99.90;;;;;;5114821;28;20221;-87
2022/04/04 09:32:17;;;;;;;11.80;7.13;;;6.90;99.90;;;;;;5114530;28;20192;-74
2022/04/04 09:34:57;;;;;;;10.33;6.77;;;6.80;99.90;;;;;;5105672;28;20186;-77
2022/04/04 09:37:31;;;;;;;9.80;6.40;;;6.70;99.90;;;;;;5116803;28;20218;-89
2022/04/04 09:40:10;;;;;;;11.80;6.93;;;6.80;99.90;;;;;;5106664;28;20196;-83
2022/04/04 09:42:37;;;;;;;9.97;7.40;;;6.80;99.90;;;;;;5106405;28;20240;-88
2022/04/04 09:45:06;;;;;;;13.60;8.00;;;6.80;99.90;;;;;;5108921;28;20228;-84
2022/04/04 09:47:53;;;;;;;8.60;7.40;;;6.80;99.90;;;;;;5114512;28;20282;-86
2022/04/04 09:50:35;;;;;;;9.73;6.70;;;6.70;99.90;;;;;;5103394;28;20539;-83
2022/04/04 09:53:04;;;;;;;7.17;6.47;;;6.70;99.90;;;;;;5110991;28;20200;-85
2022/04/04 09:55:34;;;;;;;12.20;7.20;;;6.60;99.90;;;;;;5105674;28;20193;-85
2022/04/04 09:58:07;;;;;;;7.33;6.33;;;6.50;99.90;;;;;;5102841;28;20329;-85
2022/04/04 10:00:36;;;;;;;12.60;7.40;;;6.50;99.90;;;;;;5117295;28;20193;-87
2022/04/04 10:03:07;;;;;;;12.10;7.80;;;6.50;99.90;;;;;;5116828;28;20636;-83
2022/04/04 10:05:36;;;;;;;8.10;6.50;;;6.50;99.90;;;;;;5116988;28;20599;-81
2022/04/04 10:08:05;;;;;;;8.90;6.70;;;6.50;99.90;;;;;;5117299;28;20200;-80
2022/04/04 10:10:33;;;;;;;9.60;8.70;;;6.50;99.90;;;;;;5115799;28;20416;-82
2022/04/04 10:13:00;;;;;;;10.03;8.03;;;6.50;99.90;;;;;;5116496;28;20200;-83
2022/04/04 10:15:27;;;;;;;10.60;6.77;;;6.50;99.90;;;;;;5116849;28;20185;-86
2022/04/04 10:17:56;;;;;;;9.00;7.97;;;6.60;99.90;;;;;;5116498;28;20240;-87
2022/04/04 10:20:25;;;;;;;11.10;7.90;;;6.60;99.90;;;;;;5117073;28;20200;-86
2022/04/04 10:22:54;;;;;;;7.70;7.00;;;6.60;99.90;;;;;;5104620;28;20199;-86
2022/04/04 10:25:25;;;;;;;10.93;8.13;;;6.60;99.90;;;;;;5106960;28;20216;-81
2022/04/04 10:27:55;;;;;;;9.53;8.33;;;6.50;99.90;;;;;;5101938;28;20193;-88
2022/04/04 10:30:33;;;;;;;9.87;8.17;;;6.50;99.90;;;;;;5100375;28;20235;-85
2022/04/04 10:33:00;;;;;;;10.13;7.67;;;6.60;99.90;;;;;;5096148;28;20644;-84
2022/04/04 10:35:28;;;;;;;11.13;7.07;;;6.70;99.90;;;;;;5096242;28;20445;-86
2022/04/04 10:37:59;;;;;;;10.07;6.53;;;6.70;99.90;;;;;;5095733;28;20674;-86
2022/04/04 10:40:29;;;;;;;8.13;6.93;;;6.70;99.90;;;;;;5095959;28;20205;-86
2022/04/04 10:43:15;;;;;;;8.93;7.57;;;6.70;99.90;;;;;;5095782;28;20474;-86
2022/04/04 10:45:57;;;;;;;14.23;7.83;;;6.80;99.90;;;;;;5098539;28;20216;-80
2022/04/04 10:48:30;;;;;;;9.23;7.07;;;6.70;99.90;;;;;;5100726;28;20220;-84
2022/04/04 10:51:10;;;;;;;9.77;7.60;;;6.70;99.90;;;;;;5095955;28;20209;-84
2022/04/04 10:53:41;;;;;;;10.93;9.82;;;6.80;99.90;;;;;;5095135;28;20435;-86
2022/04/04 10:56:10;;;;;;;12.20;8.30;;;6.70;99.90;;;;;;5095589;28;20672;-80
2022/04/04 10:58:39;;;;;;;12.43;8.70;;;6.80;99.90;;;;;;5095407;28;20210;-80
2022/04/04 11:01:09;;;;;;;8.00;7.20;;;6.80;99.90;;;;;;5096056;28;20211;-79
2022/04/04 11:03:41;;;;;;;9.77;8.20;;;6.80;99.90;;;;;;5095388;28;20198;-77
2022/04/04 11:09:11;;;;;;;10.67;7.83;;;6.80;99.90;;;;;;5095418;28;20251;-86
2022/04/04 11:11:52;;;;;;;10.37;7.23;;;6.90;99.90;;;;;;5095276;28;20194;-86
2022/04/04 11:14:43;;;;;;;9.77;7.53;;;6.80;99.90;;;;;;5095257;28;20220;-87
2022/04/04 11:17:33;;;;;;;9.53;6.93;;;6.70;99.90;;;;;;5095031;28;20211;-86
2022/04/04 11:20:10;;;;;;;9.90;8.37;;;6.70;99.90;;;;;;5095537;28;20235;-87
2022/04/04 11:22:45;;;;;;;11.47;10.27;;;6.60;99.90;;;;;;5094726;28;20240;-88
2022/04/04 11:25:16;;;;;;;11.77;10.23;;;6.60;99.90;;;;;;5094656;28;20228;-76
2022/04/04 11:27:48;;;;;;;9.27;8.30;;;6.70;99.90;;;;;;5094336;28;20770;-79
2022/04/04 11:30:18;;;;;;;72.80;53.40;;;6.60;99.90;;;;;;5094389;28;20470;-80
2022/04/04 11:32:47;;;;;;;9.60;8.60;;;6.60;99.90;;;;;;5099623;28;20309;-86
2022/04/04 11:35:18;;;;;;;9.37;8.47;;;6.60;99.90;;;;;;5104106;28;20523;-79
2022/04/04 11:37:47;;;;;;;10.38;8.60;;;6.70;99.90;;;;;;5114548;28;20433;-79
2022/04/04 11:40:15;;;;;;;9.50;8.60;;;6.70;99.90;;;;;;5114737;28;20205;-81
2022/04/04 11:42:44;;;;;;;9.87;8.87;;;6.70;99.90;;;;;;5114909;28;20185;-78
2022/04/04 11:45:17;;;;;;;16.73;10.33;;;6.70;99.90;;;;;;5114780;28;20220;-79
2022/04/04 11:47:50;;;;;;;11.10;8.53;;;6.60;99.90;;;;;;5114515;28;20217;-80
2022/04/04 11:50:18;;;;;;;11.23;8.63;;;6.70;99.90;;;;;;5114281;28;20189;-84
2022/04/04 11:52:47;;;;;;;10.50;9.40;;;6.70;99.90;;;;;;5114477;28;20688;-78
2022/04/04 11:55:19;;;;;;;10.47;8.57;;;6.70;99.90;;;;;;5114216;28;20205;-82
2022/04/04 11:57:49;;;;;;;12.80;8.17;;;6.70;99.90;;;;;;5114474;28;20200;-78
2022/04/04 12:00:22;;;;;;;8.47;7.77;;;6.70;99.90;;;;;;5113842;28;20204;-78
2022/04/04 12:02:49;;;;;;;14.23;9.57;;;6.70;99.90;;;;;;5114596;28;20197;-75
2022/04/04 12:05:17;;;;;;;10.33;8.30;;;6.80;99.90;;;;;;5113701;28;20296;-88
2022/04/04 12:07:44;;;;;;;8.40;7.53;;;6.80;99.90;;;;;;5114087;28;20533;-78
2022/04/04 12:10:16;;;;;;;11.03;9.70;;;6.80;99.90;;;;;;5114357;28;20200;-74
2022/04/04 12:12:45;;;;;;;12.50;9.17;;;6.80;99.90;;;;;;5113964;28;20640;-84
2022/04/04 12:15:12;;;;;;;12.27;9.20;;;6.80;99.90;;;;;;5113891;28;20188;-76
2022/04/04 12:17:40;;;;;;;16.60;9.17;;;6.80;99.90;;;;;;5113839;28;20196;-89
2022/04/04 12:20:12;;;;;;;14.60;10.27;;;6.80;99.90;;;;;;5113674;28;20208;-74
2022/04/04 12:25:26;;;;;;;11.93;10.73;;;6.80;99.90;;;;;;5112933;28;20814;-87
2022/04/04 12:27:58;;;;;;;14.30;10.23;;;7.00;99.90;;;;;;5113620;28;20223;-76
2022/04/04 12:30:33;;;;;;;8.57;7.70;;;7.00;99.90;;;;;;5113860;28;20220;-79
2022/04/04 12:33:14;;;;;;;12.30;8.53;;;7.00;99.90;;;;;;5114103;28;20215;-77
2022/04/04 12:35:44;;;;;;;13.47;8.83;;;6.90;99.90;;;;;;5113488;28;20236;-77
2022/04/04 12:38:11;;;;;;;9.80;8.80;;;6.90;99.90;;;;;;5113812;28;20244;-77
2022/04/04 12:40:41;;;;;;;12.00;9.07;;;6.90;99.90;;;;;;5113755;28;20192;-77
2022/04/04 12:43:11;;;;;;;11.00;8.17;;;6.90;99.90;;;;;;5113794;28;20204;-77
2022/04/04 12:45:46;;;;;;;11.13;8.73;;;6.80;99.90;;;;;;5113329;28;20492;-74
2022/04/04 12:48:14;;;;;;;14.07;12.20;;;6.80;99.90;;;;;;5119270;27;20428;-76
2022/04/04 12:50:46;;;;;;;13.87;8.70;;;6.80;99.90;;;;;;5120134;28;21002;-75
2022/04/04 12:53:14;;;;;;;12.23;10.97;;;6.80;99.90;;;;;;5120186;28;20203;-75
2022/04/04 12:55:44;;;;;;;9.77;7.50;;;6.80;99.90;;;;;;5120495;28;20203;-81
2022/04/04 12:58:19;;;;;;;9.23;8.13;;;6.80;99.90;;;;;;5120528;28;20243;-75
2022/04/04 13:00:47;;;;;;;13.10;8.90;;;6.80;99.90;;;;;;5120709;27;20647;-75
2022/04/04 13:03:23;;;;;;;9.70;8.90;;;6.70;99.90;;;;;;5119999;28;20291;-75
2022/04/04 13:05:53;;;;;;;11.63;9.07;;;6.80;99.90;;;;;;5120399;28;20220;-79
2022/04/04 13:08:22;;;;;;;12.67;9.17;;;6.80;99.90;;;;;;5120550;28;20199;-73